sensor_id;sensor_type;location;lat;lon;timestamp;P1;durP1;ratioP1;P2;durP2;ratioP2
55172;SDS011;41061;52.822;6.860;2023-07-09T00:01:41;7.57;;;4.57;;
55172;SDS011;41061;52.822;6.860;2023-07-09T00:04:10;9.05;;;5.40;;
55172;SDS011;41061;52.822;6.860;2023-07-09T00:06:37;8.52;;;4.53;;
55172;SDS011;41061;52.822;6.860;2023-07-09T00:09:04;10.10;;;5.50;;
55172;SDS011;41061;52.822;6.860;2023-07-09T00:11:30;7.68;;;4.70;;
55172;SDS011;41061;52.822;6.860;2023-07-09T00:13:56;7.97;;;5.20;;
55172;SDS011;41061;52.822;6.860;2023-07-09T00:16:23;9.60;;;5.18;;
55172;SDS011;41061;52.822;6.860;2023-07-09T00:18:50;10.30;;;5.90;;
55172;SDS011;41061;52.822;6.860;2023-07-09T00:21:17;9.70;;;5.03;;
55172;SDS011;41061;52.822;6.860;2023-07-09T00:23:45;8.38;;;4.88;;
55172;SDS011;41061;52.822;6.860;2023-07-09T00:26:14;6.50;;;5.00;;
55172;SDS011;41061;52.822;6.860;2023-07-09T00:28:41;8.68;;;4.88;;
55172;SDS011;41061;52.822;6.860;2023-07-09T00:31:15;9.40;;;5.35;;
55172;SDS011;41061;52.822;6.860;2023-07-09T00:33:45;8.80;;;5.00;;
55172;SDS011;41061;52.822;6.860;2023-07-09T00:36:16;12.10;;;5.20;;
55172;SDS011;41061;52.822;6.860;2023-07-09T00:39:00;8.20;;;4.68;;
55172;SDS011;41061;52.822;6.860;2023-07-09T00:41:31;8.75;;;4.95;;
55172;SDS011;41061;52.822;6.860;2023-07-09T00:44:13;13.18;;;5.22;;
55172;SDS011;41061;52.822;6.860;2023-07-09T00:49:14;8.95;;;4.88;;
55172;SDS011;41061;52.822;6.860;2023-07-09T00:52:13;7.78;;;5.13;;
55172;SDS011;41061;52.822;6.860;2023-07-09T00:54:54;7.60;;;5.10;;
55172;SDS011;41061;52.822;6.860;2023-07-09T00:57:24;9.13;;;4.68;;
55172;SDS011;41061;52.822;6.860;2023-07-09T00:59:56;5.88;;;4.88;;
55172;SDS011;41061;52.822;6.860;2023-07-09T01:02:25;8.05;;;5.10;;
55172;SDS011;41061;52.822;6.860;2023-07-09T01:04:53;7.00;;;4.30;;
55172;SDS011;41061;52.822;6.860;2023-07-09T01:07:21;6.63;;;4.90;;
55172;SDS011;41061;52.822;6.860;2023-07-09T01:09:48;7.15;;;5.07;;
55172;SDS011;41061;52.822;6.860;2023-07-09T01:12:14;8.25;;;4.60;;
55172;SDS011;41061;52.822;6.860;2023-07-09T01:14:44;7.50;;;5.03;;
55172;SDS011;41061;52.822;6.860;2023-07-09T01:17:13;9.18;;;4.82;;
55172;SDS011;41061;52.822;6.860;2023-07-09T01:19:41;9.07;;;4.97;;
55172;SDS011;41061;52.822;6.860;2023-07-09T01:22:09;6.60;;;4.90;;
55172;SDS011;41061;52.822;6.860;2023-07-09T01:24:51;8.23;;;5.45;;
55172;SDS011;41061;52.822;6.860;2023-07-09T01:27:45;7.50;;;4.88;;
55172;SDS011;41061;52.822;6.860;2023-07-09T01:30:14;9.35;;;5.00;;
55172;SDS011;41061;52.822;6.860;2023-07-09T01:32:47;7.22;;;5.13;;
55172;SDS011;41061;52.822;6.860;2023-07-09T01:35:18;8.90;;;5.18;;
55172;SDS011;41061;52.822;6.860;2023-07-09T01:37:46;7.43;;;4.55;;
55172;SDS011;41061;52.822;6.860;2023-07-09T01:40:14;7.55;;;5.18;;
55172;SDS011;41061;52.822;6.860;2023-07-09T01:42:41;8.98;;;5.45;;
55172;SDS011;41061;52.822;6.860;2023-07-09T01:45:08;8.20;;;4.70;;
55172;SDS011;41061;52.822;6.860;2023-07-09T01:47:35;8.55;;;5.15;;
55172;SDS011;41061;52.822;6.860;2023-07-09T01:50:02;8.25;;;4.97;;
55172;SDS011;41061;52.822;6.860;2023-07-09T01:52:29;7.20;;;5.30;;
55172;SDS011;41061;52.822;6.860;2023-07-09T01:54:57;11.50;;;5.20;;
55172;SDS011;41061;52.822;6.860;2023-07-09T01:57:25;7.32;;;5.30;;
55172;SDS011;41061;52.822;6.860;2023-07-09T01:59:58;8.75;;;4.50;;
55172;SDS011;41061;52.822;6.860;2023-07-09T02:02:25;7.82;;;5.60;;
55172;SDS011;41061;52.822;6.860;2023-07-09T02:04:53;8.23;;;5.13;;
55172;SDS011;41061;52.822;6.860;2023-07-09T02:07:20;7.93;;;5.13;;
55172;SDS011;41061;52.822;6.860;2023-07-09T02:09:48;7.22;;;5.43;;
55172;SDS011;41061;52.822;6.860;2023-07-09T02:12:15;7.45;;;5.40;;
55172;SDS011;41061;52.822;6.860;2023-07-09T02:14:41;6.35;;;5.05;;
55172;SDS011;41061;52.822;6.860;2023-07-09T02:17:08;8.25;;;5.35;;
55172;SDS011;41061;52.822;6.860;2023-07-09T02:19:35;11.30;;;5.10;;
55172;SDS011;41061;52.822;6.860;2023-07-09T02:22:02;9.40;;;5.07;;
55172;SDS011;41061;52.822;6.860;2023-07-09T02:24:28;11.63;;;5.20;;
55172;SDS011;41061;52.822;6.860;2023-07-09T02:26:54;7.95;;;4.97;;
55172;SDS011;41061;52.822;6.860;2023-07-09T02:29:20;8.85;;;5.03;;
55172;SDS011;41061;52.822;6.860;2023-07-09T02:31:48;7.22;;;5.35;;
55172;SDS011;41061;52.822;6.860;2023-07-09T02:34:15;8.77;;;5.25;;
55172;SDS011;41061;52.822;6.860;2023-07-09T02:36:40;7.15;;;5.30;;
55172;SDS011;41061;52.822;6.860;2023-07-09T02:39:11;6.28;;;5.15;;
55172;SDS011;41061;52.822;6.860;2023-07-09T02:41:39;9.48;;;5.50;;
55172;SDS011;41061;52.822;6.860;2023-07-09T02:44:06;7.43;;;5.32;;
55172;SDS011;41061;52.822;6.860;2023-07-09T02:46:32;8.73;;;5.63;;
55172;SDS011;41061;52.822;6.860;2023-07-09T02:48:58;7.40;;;4.82;;
55172;SDS011;41061;52.822;6.860;2023-07-09T02:51:25;6.82;;;5.35;;
55172;SDS011;41061;52.822;6.860;2023-07-09T02:53:53;8.60;;;5.80;;
55172;SDS011;41061;52.822;6.860;2023-07-09T02:56:19;9.60;;;5.45;;
55172;SDS011;41061;52.822;6.860;2023-07-09T02:58:45;6.75;;;5.30;;
55172;SDS011;41061;52.822;6.860;2023-07-09T03:01:12;8.85;;;5.43;;
55172;SDS011;41061;52.822;6.860;2023-07-09T03:03:37;6.72;;;4.97;;
55172;SDS011;41061;52.822;6.860;2023-07-09T03:06:04;12.02;;;5.78;;
55172;SDS011;41061;52.822;6.860;2023-07-09T03:08:30;8.98;;;5.25;;
55172;SDS011;41061;52.822;6.860;2023-07-09T03:10:56;8.23;;;5.50;;
55172;SDS011;41061;52.822;6.860;2023-07-09T03:13:23;7.85;;;5.25;;
55172;SDS011;41061;52.822;6.860;2023-07-09T03:15:55;8.27;;;5.50;;
55172;SDS011;41061;52.822;6.860;2023-07-09T03:18:22;7.10;;;5.43;;
55172;SDS011;41061;52.822;6.860;2023-07-09T03:20:48;8.88;;;4.85;;
55172;SDS011;41061;52.822;6.860;2023-07-09T03:23:14;6.78;;;4.78;;
55172;SDS011;41061;52.822;6.860;2023-07-09T03:25:40;9.55;;;5.70;;
55172;SDS011;41061;52.822;6.860;2023-07-09T03:28:06;7.55;;;5.30;;
55172;SDS011;41061;52.822;6.860;2023-07-09T03:30:32;9.57;;;6.10;;
55172;SDS011;41061;52.822;6.860;2023-07-09T03:32:58;11.48;;;5.72;;
55172;SDS011;41061;52.822;6.860;2023-07-09T03:35:25;9.15;;;6.15;;
55172;SDS011;41061;52.822;6.860;2023-07-09T03:37:51;7.32;;;5.65;;
55172;SDS011;41061;52.822;6.860;2023-07-09T03:40:23;10.32;;;5.88;;
55172;SDS011;41061;52.822;6.860;2023-07-09T03:42:49;8.88;;;5.70;;
55172;SDS011;41061;52.822;6.860;2023-07-09T03:45:15;7.85;;;5.90;;
55172;SDS011;41061;52.822;6.860;2023-07-09T03:47:41;7.63;;;5.78;;
55172;SDS011;41061;52.822;6.860;2023-07-09T03:50:08;8.57;;;6.03;;
55172;SDS011;41061;52.822;6.860;2023-07-09T03:52:34;10.75;;;6.55;;
55172;SDS011;41061;52.822;6.860;2023-07-09T03:55:00;9.25;;;5.57;;
55172;SDS011;41061;52.822;6.860;2023-07-09T03:57:29;9.35;;;6.05;;
55172;SDS011;41061;52.822;6.860;2023-07-09T03:59:56;8.57;;;5.55;;
55172;SDS011;41061;52.822;6.860;2023-07-09T04:02:21;9.20;;;6.63;;
55172;SDS011;41061;52.822;6.860;2023-07-09T04:04:47;10.07;;;5.82;;
55172;SDS011;41061;52.822;6.860;2023-07-09T04:07:14;9.65;;;6.35;;
55172;SDS011;41061;52.822;6.860;2023-07-09T04:09:40;10.80;;;6.00;;
55172;SDS011;41061;52.822;6.860;2023-07-09T04:12:06;9.00;;;5.78;;
55172;SDS011;41061;52.822;6.860;2023-07-09T04:14:34;9.02;;;6.20;;
55172;SDS011;41061;52.822;6.860;2023-07-09T04:17:00;10.07;;;5.90;;
55172;SDS011;41061;52.822;6.860;2023-07-09T04:19:27;9.55;;;6.03;;
55172;SDS011;41061;52.822;6.860;2023-07-09T04:21:53;9.45;;;6.03;;
55172;SDS011;41061;52.822;6.860;2023-07-09T04:24:19;11.50;;;6.40;;
55172;SDS011;41061;52.822;6.860;2023-07-09T04:26:45;8.63;;;5.78;;
55172;SDS011;41061;52.822;6.860;2023-07-09T04:29:11;9.13;;;6.43;;
55172;SDS011;41061;52.822;6.860;2023-07-09T04:31:37;8.95;;;6.10;;
55172;SDS011;41061;52.822;6.860;2023-07-09T04:34:04;9.73;;;5.50;;
55172;SDS011;41061;52.822;6.860;2023-07-09T04:36:30;9.85;;;5.97;;
55172;SDS011;41061;52.822;6.860;2023-07-09T04:38:56;8.75;;;5.78;;
55172;SDS011;41061;52.822;6.860;2023-07-09T04:41:22;10.63;;;5.63;;
55172;SDS011;41061;52.822;6.860;2023-07-09T04:43:48;7.63;;;5.50;;
55172;SDS011;41061;52.822;6.860;2023-07-09T04:46:14;8.82;;;5.68;;
55172;SDS011;41061;52.822;6.860;2023-07-09T04:48:40;9.88;;;6.00;;
55172;SDS011;41061;52.822;6.860;2023-07-09T04:51:06;8.90;;;5.82;;
55172;SDS011;41061;52.822;6.860;2023-07-09T04:53:31;9.15;;;6.18;;
55172;SDS011;41061;52.822;6.860;2023-07-09T04:55:57;7.90;;;5.63;;
55172;SDS011;41061;52.822;6.860;2023-07-09T04:58:23;8.82;;;5.57;;
55172;SDS011;41061;52.822;6.860;2023-07-09T05:00:49;11.73;;;6.28;;
55172;SDS011;41061;52.822;6.860;2023-07-09T05:03:20;8.63;;;5.88;;
55172;SDS011;41061;52.822;6.860;2023-07-09T05:05:46;8.35;;;5.55;;
55172;SDS011;41061;52.822;6.860;2023-07-09T05:08:13;12.95;;;5.85;;
55172;SDS011;41061;52.822;6.860;2023-07-09T05:10:43;6.90;;;5.28;;
55172;SDS011;41061;52.822;6.860;2023-07-09T05:13:10;7.70;;;5.35;;
55172;SDS011;41061;52.822;6.860;2023-07-09T05:15:39;8.60;;;5.80;;
55172;SDS011;41061;52.822;6.860;2023-07-09T05:18:06;9.15;;;5.55;;
55172;SDS011;41061;52.822;6.860;2023-07-09T05:20:33;9.25;;;5.50;;
55172;SDS011;41061;52.822;6.860;2023-07-09T05:22:59;8.60;;;5.53;;
55172;SDS011;41061;52.822;6.860;2023-07-09T05:25:25;9.10;;;5.32;;
55172;SDS011;41061;52.822;6.860;2023-07-09T05:27:51;8.18;;;5.80;;
55172;SDS011;41061;52.822;6.860;2023-07-09T05:30:17;8.23;;;5.90;;
55172;SDS011;41061;52.822;6.860;2023-07-09T05:32:44;10.85;;;5.85;;
55172;SDS011;41061;52.822;6.860;2023-07-09T05:35:10;7.88;;;5.85;;
55172;SDS011;41061;52.822;6.860;2023-07-09T05:37:36;8.82;;;5.45;;
55172;SDS011;41061;52.822;6.860;2023-07-09T05:40:03;9.52;;;6.50;;
55172;SDS011;41061;52.822;6.860;2023-07-09T05:42:33;8.50;;;5.40;;
55172;SDS011;41061;52.822;6.860;2023-07-09T05:44:59;8.70;;;6.40;;
55172;SDS011;41061;52.822;6.860;2023-07-09T05:47:25;7.47;;;5.13;;
55172;SDS011;41061;52.822;6.860;2023-07-09T05:49:51;9.20;;;6.07;;
55172;SDS011;41061;52.822;6.860;2023-07-09T05:52:19;13.48;;;5.80;;
55172;SDS011;41061;52.822;6.860;2023-07-09T05:54:48;10.80;;;6.15;;
55172;SDS011;41061;52.822;6.860;2023-07-09T05:57:15;9.18;;;6.65;;
55172;SDS011;41061;52.822;6.860;2023-07-09T05:59:41;10.35;;;6.18;;
55172;SDS011;41061;52.822;6.860;2023-07-09T06:02:10;8.13;;;5.10;;
55172;SDS011;41061;52.822;6.860;2023-07-09T06:04:37;9.75;;;5.78;;
55172;SDS011;41061;52.822;6.860;2023-07-09T06:07:03;10.45;;;6.00;;
55172;SDS011;41061;52.822;6.860;2023-07-09T06:09:29;10.27;;;6.60;;
55172;SDS011;41061;52.822;6.860;2023-07-09T06:11:55;8.95;;;6.63;;
55172;SDS011;41061;52.822;6.860;2023-07-09T06:14:21;9.07;;;6.03;;
55172;SDS011;41061;52.822;6.860;2023-07-09T06:16:47;7.57;;;6.00;;
55172;SDS011;41061;52.822;6.860;2023-07-09T06:19:13;9.18;;;6.10;;
55172;SDS011;41061;52.822;6.860;2023-07-09T06:21:40;9.77;;;6.25;;
55172;SDS011;41061;52.822;6.860;2023-07-09T06:24:06;16.52;;;7.30;;
55172;SDS011;41061;52.822;6.860;2023-07-09T06:26:33;10.13;;;6.43;;
55172;SDS011;41061;52.822;6.860;2023-07-09T06:28:59;10.70;;;5.72;;
55172;SDS011;41061;52.822;6.860;2023-07-09T06:31:25;10.40;;;6.00;;
55172;SDS011;41061;52.822;6.860;2023-07-09T06:33:51;8.93;;;5.97;;
55172;SDS011;41061;52.822;6.860;2023-07-09T06:36:17;8.18;;;5.22;;
55172;SDS011;41061;52.822;6.860;2023-07-09T06:38:44;9.68;;;5.93;;
55172;SDS011;41061;52.822;6.860;2023-07-09T06:41:11;9.48;;;6.28;;
55172;SDS011;41061;52.822;6.860;2023-07-09T06:43:37;11.55;;;6.10;;
55172;SDS011;41061;52.822;6.860;2023-07-09T06:46:04;9.63;;;6.35;;
55172;SDS011;41061;52.822;6.860;2023-07-09T06:48:31;9.52;;;6.13;;
55172;SDS011;41061;52.822;6.860;2023-07-09T06:50:58;11.43;;;6.13;;
55172;SDS011;41061;52.822;6.860;2023-07-09T06:53:24;8.75;;;5.55;;
55172;SDS011;41061;52.822;6.860;2023-07-09T06:55:51;8.73;;;6.28;;
55172;SDS011;41061;52.822;6.860;2023-07-09T06:58:24;9.05;;;5.78;;
55172;SDS011;41061;52.822;6.860;2023-07-09T07:00:51;8.35;;;6.28;;
55172;SDS011;41061;52.822;6.860;2023-07-09T07:03:17;8.20;;;5.40;;
55172;SDS011;41061;52.822;6.860;2023-07-09T07:05:44;9.98;;;6.22;;
55172;SDS011;41061;52.822;6.860;2023-07-09T07:08:10;7.65;;;5.70;;
55172;SDS011;41061;52.822;6.860;2023-07-09T07:10:38;9.70;;;5.40;;
55172;SDS011;41061;52.822;6.860;2023-07-09T07:13:04;9.10;;;5.90;;
55172;SDS011;41061;52.822;6.860;2023-07-09T07:15:29;9.40;;;5.63;;
55172;SDS011;41061;52.822;6.860;2023-07-09T07:17:55;12.40;;;5.30;;
55172;SDS011;41061;52.822;6.860;2023-07-09T07:20:21;10.52;;;6.05;;
55172;SDS011;41061;52.822;6.860;2023-07-09T07:22:47;10.90;;;5.78;;
55172;SDS011;41061;52.822;6.860;2023-07-09T07:25:13;10.52;;;5.70;;
55172;SDS011;41061;52.822;6.860;2023-07-09T07:27:39;9.82;;;5.35;;
55172;SDS011;41061;52.822;6.860;2023-07-09T07:30:06;12.05;;;6.25;;
55172;SDS011;41061;52.822;6.860;2023-07-09T07:32:42;8.35;;;5.60;;
55172;SDS011;41061;52.822;6.860;2023-07-09T07:35:09;8.75;;;5.80;;
55172;SDS011;41061;52.822;6.860;2023-07-09T07:37:35;9.25;;;5.60;;
55172;SDS011;41061;52.822;6.860;2023-07-09T07:40:01;9.45;;;6.35;;
55172;SDS011;41061;52.822;6.860;2023-07-09T07:42:29;8.23;;;5.78;;
55172;SDS011;41061;52.822;6.860;2023-07-09T07:44:55;8.50;;;5.55;;
55172;SDS011;41061;52.822;6.860;2023-07-09T07:47:21;9.13;;;6.05;;
55172;SDS011;41061;52.822;6.860;2023-07-09T07:49:47;7.00;;;5.28;;
55172;SDS011;41061;52.822;6.860;2023-07-09T07:52:13;10.38;;;6.10;;
55172;SDS011;41061;52.822;6.860;2023-07-09T07:54:39;8.10;;;5.60;;
55172;SDS011;41061;52.822;6.860;2023-07-09T07:57:05;7.47;;;5.40;;
55172;SDS011;41061;52.822;6.860;2023-07-09T07:59:31;10.68;;;5.45;;
55172;SDS011;41061;52.822;6.860;2023-07-09T08:02:00;10.45;;;5.63;;
55172;SDS011;41061;52.822;6.860;2023-07-09T08:04:26;10.10;;;5.32;;
55172;SDS011;41061;52.822;6.860;2023-07-09T08:06:52;9.43;;;5.43;;
55172;SDS011;41061;52.822;6.860;2023-07-09T08:09:18;10.23;;;6.00;;
55172;SDS011;41061;52.822;6.860;2023-07-09T08:11:44;8.90;;;5.38;;
55172;SDS011;41061;52.822;6.860;2023-07-09T08:14:10;9.27;;;5.68;;
55172;SDS011;41061;52.822;6.860;2023-07-09T08:16:37;8.65;;;5.80;;
55172;SDS011;41061;52.822;6.860;2023-07-09T08:19:03;9.40;;;5.38;;
55172;SDS011;41061;52.822;6.860;2023-07-09T08:21:29;10.20;;;5.40;;
55172;SDS011;41061;52.822;6.860;2023-07-09T08:23:55;8.90;;;6.15;;
55172;SDS011;41061;52.822;6.860;2023-07-09T08:26:20;10.05;;;5.28;;
55172;SDS011;41061;52.822;6.860;2023-07-09T08:28:46;7.40;;;4.90;;
55172;SDS011;41061;52.822;6.860;2023-07-09T08:31:13;7.57;;;5.65;;
55172;SDS011;41061;52.822;6.860;2023-07-09T08:33:38;8.30;;;5.30;;
55172;SDS011;41061;52.822;6.860;2023-07-09T08:36:05;7.70;;;5.63;;
55172;SDS011;41061;52.822;6.860;2023-07-09T08:38:31;9.63;;;5.65;;
55172;SDS011;41061;52.822;6.860;2023-07-09T08:41:01;8.00;;;5.40;;
55172;SDS011;41061;52.822;6.860;2023-07-09T08:43:49;10.60;;;5.88;;
55172;SDS011;41061;52.822;6.860;2023-07-09T08:49:43;8.98;;;4.85;;
55172;SDS011;41061;52.822;6.860;2023-07-09T08:52:15;10.00;;;5.47;;
55172;SDS011;41061;52.822;6.860;2023-07-09T08:54:49;15.70;;;5.10;;
55172;SDS011;41061;52.822;6.860;2023-07-09T08:57:22;10.50;;;5.50;;
55172;SDS011;41061;52.822;6.860;2023-07-09T09:02:30;12.43;;;5.53;;
55172;SDS011;41061;52.822;6.860;2023-07-09T09:05:02;9.85;;;5.50;;
55172;SDS011;41061;52.822;6.860;2023-07-09T09:10:11;8.18;;;4.93;;
55172;SDS011;41061;52.822;6.860;2023-07-09T09:15:34;8.32;;;4.60;;
55172;SDS011;41061;52.822;6.860;2023-07-09T09:20:36;9.18;;;5.60;;
55172;SDS011;41061;52.822;6.860;2023-07-09T09:25:41;6.55;;;4.93;;
55172;SDS011;41061;52.822;6.860;2023-07-09T09:28:15;11.07;;;4.67;;
55172;SDS011;41061;52.822;6.860;2023-07-09T09:30:41;8.23;;;4.60;;
55172;SDS011;41061;52.822;6.860;2023-07-09T09:33:07;6.82;;;3.95;;
55172;SDS011;41061;52.822;6.860;2023-07-09T09:35:42;7.05;;;4.88;;
55172;SDS011;41061;52.822;6.860;2023-07-09T09:38:10;8.00;;;4.40;;
55172;SDS011;41061;52.822;6.860;2023-07-09T09:40:42;6.32;;;4.00;;
55172;SDS011;41061;52.822;6.860;2023-07-09T09:43:11;8.73;;;3.58;;
55172;SDS011;41061;52.822;6.860;2023-07-09T09:45:43;6.65;;;3.65;;
55172;SDS011;41061;52.822;6.860;2023-07-09T09:48:13;5.63;;;3.40;;
55172;SDS011;41061;52.822;6.860;2023-07-09T09:50:39;7.97;;;4.35;;
55172;SDS011;41061;52.822;6.860;2023-07-09T09:53:07;9.60;;;3.65;;
55172;SDS011;41061;52.822;6.860;2023-07-09T09:55:34;4.95;;;3.78;;
55172;SDS011;41061;52.822;6.860;2023-07-09T09:58:00;6.75;;;3.42;;
55172;SDS011;41061;52.822;6.860;2023-07-09T10:00:27;5.38;;;4.00;;
55172;SDS011;41061;52.822;6.860;2023-07-09T10:03:02;8.88;;;4.32;;
55172;SDS011;41061;52.822;6.860;2023-07-09T10:05:55;9.05;;;4.03;;
55172;SDS011;41061;52.822;6.860;2023-07-09T10:08:42;8.50;;;4.35;;
55172;SDS011;41061;52.822;6.860;2023-07-09T10:16:57;6.82;;;4.43;;
55172;SDS011;41061;52.822;6.860;2023-07-09T10:25:00;15.15;;;5.43;;
55172;SDS011;41061;52.822;6.860;2023-07-09T10:33:27;8.02;;;4.00;;
55172;SDS011;41061;52.822;6.860;2023-07-09T10:41:30;7.70;;;4.03;;
55172;SDS011;41061;52.822;6.860;2023-07-09T10:46:36;9.07;;;4.20;;
55172;SDS011;41061;52.822;6.860;2023-07-09T10:49:05;6.07;;;4.43;;
55172;SDS011;41061;52.822;6.860;2023-07-09T10:57:14;6.55;;;3.85;;
55172;SDS011;41061;52.822;6.860;2023-07-09T10:59:46;7.03;;;4.18;;
55172;SDS011;41061;52.822;6.860;2023-07-09T11:02:30;8.48;;;4.20;;
55172;SDS011;41061;52.822;6.860;2023-07-09T11:05:00;5.78;;;3.83;;
55172;SDS011;41061;52.822;6.860;2023-07-09T11:09:58;9.02;;;3.88;;
55172;SDS011;41061;52.822;6.860;2023-07-09T11:12:36;6.82;;;4.15;;
55172;SDS011;41061;52.822;6.860;2023-07-09T11:15:06;7.78;;;3.92;;
55172;SDS011;41061;52.822;6.860;2023-07-09T11:17:35;6.80;;;3.65;;
55172;SDS011;41061;52.822;6.860;2023-07-09T11:20:16;6.53;;;3.92;;
55172;SDS011;41061;52.822;6.860;2023-07-09T11:25:26;7.63;;;3.83;;
55172;SDS011;41061;52.822;6.860;2023-07-09T11:28:07;8.85;;;3.97;;
55172;SDS011;41061;52.822;6.860;2023-07-09T11:30:45;8.65;;;3.97;;
55172;SDS011;41061;52.822;6.860;2023-07-09T11:33:33;6.43;;;3.88;;
55172;SDS011;41061;52.822;6.860;2023-07-09T11:36:10;7.05;;;3.95;;
55172;SDS011;41061;52.822;6.860;2023-07-09T11:38:39;5.45;;;3.65;;
55172;SDS011;41061;52.822;6.860;2023-07-09T11:49:56;7.63;;;3.97;;
55172;SDS011;41061;52.822;6.860;2023-07-09T11:52:31;6.40;;;3.80;;
55172;SDS011;41061;52.822;6.860;2023-07-09T11:55:38;8.02;;;4.25;;
55172;SDS011;41061;52.822;6.860;2023-07-09T11:57:57;5.63;;;3.67;;
55172;SDS011;41061;52.822;6.860;2023-07-09T12:00:26;6.30;;;3.95;;
55172;SDS011;41061;52.822;6.860;2023-07-09T12:02:55;5.10;;;3.50;;
55172;SDS011;41061;52.822;6.860;2023-07-09T12:05:22;5.30;;;3.50;;
55172;SDS011;41061;52.822;6.860;2023-07-09T12:07:52;5.00;;;3.63;;
55172;SDS011;41061;52.822;6.860;2023-07-09T12:10:21;8.85;;;3.75;;
55172;SDS011;41061;52.822;6.860;2023-07-09T12:12:53;7.07;;;3.63;;
55172;SDS011;41061;52.822;6.860;2023-07-09T12:15:22;5.40;;;3.50;;
55172;SDS011;41061;52.822;6.860;2023-07-09T12:18:03;7.50;;;3.60;;
55172;SDS011;41061;52.822;6.860;2023-07-09T12:20:36;6.07;;;3.00;;
55172;SDS011;41061;52.822;6.860;2023-07-09T12:26:05;5.10;;;3.28;;
55172;SDS011;41061;52.822;6.860;2023-07-09T12:28:37;6.30;;;3.28;;
55172;SDS011;41061;52.822;6.860;2023-07-09T12:31:02;7.03;;;3.17;;
55172;SDS011;41061;52.822;6.860;2023-07-09T12:33:28;5.43;;;3.60;;
55172;SDS011;41061;52.822;6.860;2023-07-09T12:36:04;6.30;;;3.20;;
55172;SDS011;41061;52.822;6.860;2023-07-09T12:38:40;5.22;;;3.13;;
55172;SDS011;41061;52.822;6.860;2023-07-09T12:43:57;6.40;;;3.33;;
55172;SDS011;41061;52.822;6.860;2023-07-09T12:46:22;5.95;;;3.10;;
55172;SDS011;41061;52.822;6.860;2023-07-09T12:48:49;5.72;;;3.33;;
55172;SDS011;41061;52.822;6.860;2023-07-09T12:51:18;5.35;;;2.88;;
55172;SDS011;41061;52.822;6.860;2023-07-09T12:56:41;5.30;;;3.35;;
55172;SDS011;41061;52.822;6.860;2023-07-09T12:59:15;6.68;;;3.40;;
55172;SDS011;41061;52.822;6.860;2023-07-09T13:01:46;6.82;;;3.00;;
55172;SDS011;41061;52.822;6.860;2023-07-09T13:04:14;5.03;;;3.10;;
55172;SDS011;41061;52.822;6.860;2023-07-09T13:06:40;5.15;;;3.33;;
55172;SDS011;41061;52.822;6.860;2023-07-09T13:09:19;6.93;;;3.60;;
55172;SDS011;41061;52.822;6.860;2023-07-09T13:11:50;8.73;;;3.88;;
55172;SDS011;41061;52.822;6.860;2023-07-09T13:14:26;4.97;;;2.90;;
55172;SDS011;41061;52.822;6.860;2023-07-09T13:17:15;5.72;;;2.58;;
55172;SDS011;41061;52.822;6.860;2023-07-09T13:19:41;7.28;;;3.08;;
55172;SDS011;41061;52.822;6.860;2023-07-09T13:22:07;5.63;;;2.80;;
55172;SDS011;41061;52.822;6.860;2023-07-09T13:24:37;5.80;;;2.67;;
55172;SDS011;41061;52.822;6.860;2023-07-09T13:27:03;3.63;;;2.67;;
55172;SDS011;41061;52.822;6.860;2023-07-09T13:29:31;8.15;;;2.60;;
55172;SDS011;41061;52.822;6.860;2023-07-09T13:31:56;8.13;;;2.75;;
55172;SDS011;41061;52.822;6.860;2023-07-09T13:34:26;5.80;;;3.22;;
55172;SDS011;41061;52.822;6.860;2023-07-09T13:36:56;9.57;;;3.20;;
55172;SDS011;41061;52.822;6.860;2023-07-09T13:39:22;7.05;;;3.78;;
55172;SDS011;41061;52.822;6.860;2023-07-09T13:41:49;5.53;;;2.65;;
55172;SDS011;41061;52.822;6.860;2023-07-09T13:44:22;3.97;;;2.88;;
55172;SDS011;41061;52.822;6.860;2023-07-09T13:46:50;7.47;;;3.08;;
55172;SDS011;41061;52.822;6.860;2023-07-09T13:49:20;4.82;;;2.47;;
55172;SDS011;41061;52.822;6.860;2023-07-09T13:51:48;5.82;;;3.03;;
55172;SDS011;41061;52.822;6.860;2023-07-09T13:54:34;3.55;;;2.50;;
55172;SDS011;41061;52.822;6.860;2023-07-09T13:57:04;9.02;;;3.00;;
55172;SDS011;41061;52.822;6.860;2023-07-09T13:59:31;6.53;;;3.60;;
55172;SDS011;41061;52.822;6.860;2023-07-09T14:01:58;4.35;;;2.90;;
55172;SDS011;41061;52.822;6.860;2023-07-09T14:04:25;8.82;;;3.10;;
55172;SDS011;41061;52.822;6.860;2023-07-09T14:06:51;6.97;;;3.08;;
55172;SDS011;41061;52.822;6.860;2023-07-09T14:09:17;5.68;;;3.15;;
55172;SDS011;41061;52.822;6.860;2023-07-09T14:11:52;4.68;;;2.95;;
55172;SDS011;41061;52.822;6.860;2023-07-09T14:14:19;6.80;;;3.08;;
55172;SDS011;41061;52.822;6.860;2023-07-09T14:16:47;5.63;;;2.88;;
55172;SDS011;41061;52.822;6.860;2023-07-09T14:19:18;17.80;;;3.30;;
55172;SDS011;41061;52.822;6.860;2023-07-09T14:21:46;9.63;;;3.17;;
55172;SDS011;41061;52.822;6.860;2023-07-09T14:24:31;10.35;;;3.60;;
55172;SDS011;41061;52.822;6.860;2023-07-09T14:26:57;12.88;;;3.38;;
55172;SDS011;41061;52.822;6.860;2023-07-09T14:29:23;8.38;;;2.90;;
55172;SDS011;41061;52.822;6.860;2023-07-09T14:31:49;5.78;;;2.72;;
55172;SDS011;41061;52.822;6.860;2023-07-09T14:36:45;5.65;;;3.42;;
55172;SDS011;41061;52.822;6.860;2023-07-09T14:39:11;6.20;;;3.60;;
55172;SDS011;41061;52.822;6.860;2023-07-09T14:41:36;4.03;;;3.08;;
55172;SDS011;41061;52.822;6.860;2023-07-09T14:44:02;4.90;;;3.30;;
55172;SDS011;41061;52.822;6.860;2023-07-09T14:46:50;6.68;;;3.88;;
55172;SDS011;41061;52.822;6.860;2023-07-09T14:49:18;5.78;;;3.42;;
55172;SDS011;41061;52.822;6.860;2023-07-09T14:51:44;9.88;;;3.53;;
55172;SDS011;41061;52.822;6.860;2023-07-09T14:54:20;4.90;;;3.40;;
55172;SDS011;41061;52.822;6.860;2023-07-09T14:56:51;7.60;;;3.70;;
55172;SDS011;41061;52.822;6.860;2023-07-09T14:59:17;4.50;;;3.28;;
55172;SDS011;41061;52.822;6.860;2023-07-09T15:01:43;6.07;;;3.40;;
55172;SDS011;41061;52.822;6.860;2023-07-09T15:04:31;7.00;;;3.65;;
55172;SDS011;41061;52.822;6.860;2023-07-09T15:06:57;7.32;;;3.20;;
55172;SDS011;41061;52.822;6.860;2023-07-09T15:09:24;8.18;;;3.20;;
55172;SDS011;41061;52.822;6.860;2023-07-09T15:11:52;5.80;;;3.13;;
55172;SDS011;41061;52.822;6.860;2023-07-09T15:14:23;7.65;;;3.38;;
55172;SDS011;41061;52.822;6.860;2023-07-09T15:16:50;8.00;;;3.42;;
55172;SDS011;41061;52.822;6.860;2023-07-09T15:19:17;5.93;;;3.00;;
55172;SDS011;41061;52.822;6.860;2023-07-09T15:21:44;5.82;;;3.20;;
55172;SDS011;41061;52.822;6.860;2023-07-09T15:24:31;6.18;;;3.25;;
55172;SDS011;41061;52.822;6.860;2023-07-09T15:26:59;5.97;;;3.67;;
55172;SDS011;41061;52.822;6.860;2023-07-09T15:29:26;6.50;;;3.67;;
55172;SDS011;41061;52.822;6.860;2023-07-09T15:31:53;12.07;;;4.82;;
55172;SDS011;41061;52.822;6.860;2023-07-09T15:34:18;7.28;;;3.60;;
55172;SDS011;41061;52.822;6.860;2023-07-09T15:36:45;9.43;;;4.18;;
55172;SDS011;41061;52.822;6.860;2023-07-09T15:39:13;8.38;;;4.43;;
55172;SDS011;41061;52.822;6.860;2023-07-09T15:41:40;8.73;;;4.43;;
55172;SDS011;41061;52.822;6.860;2023-07-09T15:44:09;10.57;;;4.22;;
55172;SDS011;41061;52.822;6.860;2023-07-09T15:46:40;13.75;;;5.07;;
55172;SDS011;41061;52.822;6.860;2023-07-09T15:49:12;11.40;;;4.60;;
55172;SDS011;41061;52.822;6.860;2023-07-09T15:51:38;13.95;;;5.32;;
55172;SDS011;41061;52.822;6.860;2023-07-09T15:54:15;8.38;;;4.90;;
55172;SDS011;41061;52.822;6.860;2023-07-09T15:56:42;13.88;;;4.90;;
55172;SDS011;41061;52.822;6.860;2023-07-09T15:59:14;11.57;;;5.00;;
55172;SDS011;41061;52.822;6.860;2023-07-09T16:01:51;14.30;;;4.35;;
55172;SDS011;41061;52.822;6.860;2023-07-09T16:04:17;9.80;;;4.57;;
55172;SDS011;41061;52.822;6.860;2023-07-09T16:06:43;9.85;;;4.03;;
55172;SDS011;41061;52.822;6.860;2023-07-09T16:09:09;13.75;;;4.25;;
55172;SDS011;41061;52.822;6.860;2023-07-09T16:11:37;13.10;;;4.15;;